Time;durP1;ratioP1;P1;durP2;ratioP2;P2;SDS_P1;SDS_P2;PMS_P1;PMS_P2;Temp;Humidity;BMP_temperature;BMP_pressure;BME280_temperature;BME280_humidity;BME280_pressure;Samples;Min_cycle;Max_cycle;Signal;HPM_P1;HPM_P2
2022/10/25 00:00:19;;;;;;;7.82;5.15;;;17.10;99.90;;;;;;4121671;28;20269;-83
2022/10/25 00:02:39;;;;;;;9.50;5.78;;;17.10;99.90;;;;;;4133634;28;20052;-83
2022/10/25 00:04:59;;;;;;;6.88;5.75;;;17.10;99.90;;;;;;4136939;28;20084;-83
2022/10/25 00:07:19;;;;;;;12.13;6.00;;;17.00;99.90;;;;;;4113734;28;20172;-83
2022/10/25 00:09:39;;;;;;;16.67;6.35;;;17.10;99.90;;;;;;4118991;28;20078;-83
2022/10/25 00:11:59;;;;;;;7.80;5.28;;;17.10;99.90;;;;;;4123096;28;20202;-83
2022/10/25 00:14:19;;;;;;;12.45;7.05;;;17.10;99.90;;;;;;4131393;28;20048;-83
2022/10/25 00:16:39;;;;;;;6.47;5.35;;;17.10;99.90;;;;;;4119402;28;20097;-83
2022/10/25 00:18:59;;;;;;;8.27;6.53;;;17.10;99.90;;;;;;4122100;28;20046;-83
2022/10/25 00:21:19;;;;;;;10.93;6.43;;;17.00;99.90;;;;;;4127699;28;20237;-83
2022/10/25 00:23:39;;;;;;;6.65;6.22;;;16.90;99.90;;;;;;4135875;28;20456;-83
2022/10/25 00:26:01;;;;;;;14.15;5.97;;;16.80;99.90;;;;;;4138181;28;20062;-83
2022/10/25 00:28:21;;;;;;;6.80;6.20;;;16.90;99.90;;;;;;4135483;28;20093;-83
2022/10/25 00:30:40;;;;;;;7.28;5.43;;;16.80;99.90;;;;;;4125275;28;20090;-83
2022/10/25 00:33:00;;;;;;;9.45;6.95;;;16.90;99.90;;;;;;4115019;28;20318;-83
2022/10/25 00:35:20;;;;;;;10.60;7.80;;;16.90;99.90;;;;;;4138948;28;20344;-83
2022/10/25 00:37:40;;;;;;;7.00;6.13;;;17.00;99.90;;;;;;4140070;28;20302;-83
2022/10/25 00:40:00;;;;;;;6.60;5.95;;;17.00;99.90;;;;;;4122717;28;20045;-83
2022/10/25 00:42:24;;;;;;;11.63;6.85;;;16.90;99.90;;;;;;4134364;28;20052;-83
2022/10/25 00:44:53;;;;;;;8.52;5.90;;;17.00;99.90;;;;;;4131352;28;20065;-83
2022/10/25 00:47:19;;;;;;;6.75;6.05;;;17.00;99.90;;;;;;4114494;28;20038;-83
2022/10/25 00:49:41;;;;;;;14.45;7.95;;;17.10;99.90;;;;;;4129800;28;20110;-83
2022/10/25 00:52:03;;;;;;;7.65;6.03;;;17.00;99.90;;;;;;4138867;28;20105;-83
2022/10/25 00:54:25;;;;;;;;;;;16.90;99.90;;;;;;4131396;28;20049;-83
2022/10/25 00:56:49;;;;;;;7.32;6.68;;;16.90;99.90;;;;;;4119336;28;19985;-83
2022/10/25 00:59:13;;;;;;;6.82;6.18;;;16.90;99.90;;;;;;4133156;28;20094;-83
2022/10/25 01:01:33;;;;;;;14.70;7.00;;;16.80;99.90;;;;;;4122396;28;20041;-83
2022/10/25 01:03:58;;;;;;;9.10;7.30;;;16.80;99.90;;;;;;4136248;28;20049;-83
2022/10/25 01:06:25;;;;;;;8.88;6.70;;;16.80;99.90;;;;;;4135377;28;20042;-83
2022/10/25 01:08:48;;;;;;;7.22;6.40;;;16.70;99.90;;;;;;4120373;28;20294;-83
2022/10/25 01:11:08;;;;;;;10.38;6.97;;;16.80;99.90;;;;;;4132136;28;20127;-83
2022/10/25 01:13:29;;;;;;;10.68;6.47;;;16.80;99.90;;;;;;4114430;28;20067;-83
2022/10/25 01:15:59;;;;;;;12.32;6.07;;;16.70;99.90;;;;;;4138433;28;20049;-83
2022/10/25 01:18:36;;;;;;;9.30;6.15;;;16.70;99.90;;;;;;4126218;28;20050;-83
2022/10/25 01:20:55;;;;;;;8.27;7.30;;;16.60;99.90;;;;;;4129710;28;20057;-83
2022/10/25 01:23:37;;;;;;;8.55;6.00;;;16.60;99.90;;;;;;4132728;28;20053;-83
2022/10/25 01:26:07;;;;;;;17.05;7.88;;;16.60;99.90;;;;;;4135085;28;20053;-83
2022/10/25 01:28:56;;;;;;;9.40;6.22;;;16.60;99.90;;;;;;4126915;28;20089;-83
2022/10/25 01:31:21;;;;;;;8.25;6.22;;;16.40;99.90;;;;;;4136988;28;20045;-83
2022/10/25 01:34:00;;;;;;;6.72;6.20;;;16.50;99.90;;;;;;4136914;28;20126;-83
2022/10/25 01:37:01;;;;;;;10.75;6.97;;;16.40;99.90;;;;;;4133170;28;20367;-83
2022/10/25 01:39:25;;;;;;;8.07;7.45;;;16.40;99.90;;;;;;4099901;28;20069;-83
2022/10/25 01:42:00;;;;;;;7.95;7.32;;;16.30;99.90;;;;;;4127092;28;20053;-83
2022/10/25 01:45:14;;;;;;;12.30;6.78;;;16.30;99.90;;;;;;4136323;28;20288;-83
2022/10/25 01:47:38;;;;;;;9.27;8.32;;;16.40;99.90;;;;;;4070912;29;20051;-83
2022/10/25 01:50:12;;;;;;;12.68;7.35;;;16.40;99.90;;;;;;4125788;28;20061;-83
2022/10/25 01:52:32;;;;;;;9.52;6.22;;;16.30;99.90;;;;;;4130090;28;20049;-83
2022/10/25 01:54:52;;;;;;;9.63;7.22;;;16.40;99.90;;;;;;4127328;28;20084;-83
2022/10/25 01:57:31;;;;;;;7.93;6.70;;;16.50;99.90;;;;;;4123941;28;20077;-83
2022/10/25 02:00:19;;;;;;;8.20;7.47;;;16.60;99.90;;;;;;4122229;28;20041;-83
2022/10/25 02:02:48;;;;;;;8.30;7.18;;;16.60;99.90;;;;;;4131375;28;20050;-83
2022/10/25 02:05:22;;;;;;;7.00;6.25;;;16.50;99.90;;;;;;4116355;28;20058;-83
2022/10/25 02:08:03;;;;;;;7.55;6.85;;;16.70;99.90;;;;;;4136503;28;20050;-83
2022/10/25 02:10:31;;;;;;;6.85;6.38;;;16.60;99.90;;;;;;4127314;28;20146;-83
2022/10/25 02:13:00;;;;;;;8.35;7.53;;;16.60;99.90;;;;;;4138098;28;20234;-83
2022/10/25 02:15:29;;;;;;;11.35;7.28;;;16.60;99.90;;;;;;4130155;28;20099;-83
2022/10/25 02:17:57;;;;;;;7.43;6.75;;;16.70;99.90;;;;;;4130656;28;20102;-83
2022/10/25 02:20:20;;;;;;;10.15;7.45;;;16.70;99.90;;;;;;4128735;28;20072;-83
2022/10/25 02:22:40;;;;;;;8.43;6.60;;;16.80;99.90;;;;;;4126022;28;20050;-83
2022/10/25 02:25:01;;;;;;;10.68;7.68;;;16.90;99.90;;;;;;4135053;28;20058;-83
2022/10/25 02:27:23;;;;;;;10.23;6.75;;;16.80;99.90;;;;;;4134509;28;20106;-83
2022/10/25 02:29:44;;;;;;;10.40;7.38;;;16.70;99.90;;;;;;4119288;28;20062;-83
2022/10/25 02:32:04;;;;;;;9.50;6.20;;;16.70;99.90;;;;;;4130921;28;20375;-83
2022/10/25 02:34:24;;;;;;;15.15;7.50;;;16.70;99.90;;;;;;4114021;28;20053;-83
2022/10/25 02:36:54;;;;;;;10.60;8.25;;;16.70;99.90;;;;;;4128020;28;20046;-83
2022/10/25 02:39:16;;;;;;;8.60;7.05;;;16.70;99.90;;;;;;4140206;28;20045;-83
2022/10/25 02:41:35;;;;;;;13.43;6.85;;;16.60;99.90;;;;;;4116909;28;20400;-83
2022/10/25 02:43:55;;;;;;;7.57;6.85;;;16.60;99.90;;;;;;4119627;28;20053;-83
2022/10/25 02:46:20;;;;;;;15.32;8.15;;;16.60;99.90;;;;;;4131488;28;20057;-83
2022/10/25 02:48:41;;;;;;;7.65;6.93;;;16.50;99.90;;;;;;4136701;28;20046;-83
2022/10/25 02:51:00;;;;;;;10.05;8.30;;;16.40;99.90;;;;;;4142416;28;20041;-83
2022/10/25 02:53:20;;;;;;;8.40;7.43;;;16.40;99.90;;;;;;4129320;28;20159;-83
2022/10/25 02:55:40;;;;;;;7.35;6.57;;;16.40;99.90;;;;;;4136187;28;20086;-82
2022/10/25 02:58:00;;;;;;;10.35;7.28;;;16.40;99.90;;;;;;4126736;28;20058;-83
2022/10/25 03:00:20;;;;;;;8.50;7.65;;;16.40;99.90;;;;;;4131613;28;20105;-83
2022/10/25 03:02:39;;;;;;;10.38;8.57;;;16.40;99.90;;;;;;4128904;28;20058;-83
2022/10/25 03:04:59;;;;;;;7.30;6.75;;;16.40;99.90;;;;;;4136233;28;20085;-83
2022/10/25 03:07:18;;;;;;;9.20;7.57;;;16.40;99.90;;;;;;4139404;28;20041;-83
2022/10/25 03:09:38;;;;;;;10.82;6.97;;;16.40;99.90;;;;;;4136594;28;20237;-83
2022/10/25 03:11:57;;;;;;;17.48;8.65;;;16.50;99.90;;;;;;4118977;28;20042;-83
2022/10/25 03:14:17;;;;;;;9.70;7.57;;;16.50;99.90;;;;;;4116217;28;20086;-83
2022/10/25 03:16:37;;;;;;;8.35;7.47;;;16.40;99.90;;;;;;4127952;28;20042;-83
2022/10/25 03:18:58;;;;;;;7.55;7.05;;;16.50;99.90;;;;;;4137875;28;20081;-83
2022/10/25 03:21:18;;;;;;;14.88;7.53;;;16.40;99.90;;;;;;4126394;28;20073;-83
2022/10/25 03:23:37;;;;;;;9.68;8.80;;;16.40;99.90;;;;;;4135347;28;20241;-83
2022/10/25 03:25:59;;;;;;;13.88;7.45;;;16.30;99.90;;;;;;4121531;28;20074;-83
2022/10/25 03:28:19;;;;;;;9.07;7.13;;;16.30;99.90;;;;;;4138983;28;20073;-83
2022/10/25 03:30:40;;;;;;;10.07;9.20;;;16.30;99.90;;;;;;4141465;28;20077;-83
2022/10/25 03:33:00;;;;;;;11.60;8.35;;;16.20;99.90;;;;;;4126214;28;20053;-83
2022/10/25 03:35:20;;;;;;;8.40;7.82;;;16.40;99.90;;;;;;4122649;28;20391;-83
2022/10/25 03:37:40;;;;;;;12.98;8.85;;;16.40;99.90;;;;;;4133598;28;20290;-83
2022/10/25 03:40:00;;;;;;;10.60;7.30;;;16.50;99.90;;;;;;4121434;28;20140;-83
2022/10/25 03:42:19;;;;;;;8.55;7.55;;;16.70;99.90;;;;;;4138716;28;20054;-83
2022/10/25 03:44:39;;;;;;;9.10;8.30;;;16.80;99.90;;;;;;4130242;28;20089;-83
2022/10/25 03:46:58;;;;;;;8.57;7.97;;;16.80;99.90;;;;;;4139968;28;20053;-83
2022/10/25 03:49:18;;;;;;;9.45;7.53;;;16.80;99.90;;;;;;4137231;28;20058;-82
2022/10/25 03:51:38;;;;;;;12.43;7.07;;;16.80;99.90;;;;;;4134451;28;20045;-83
2022/10/25 03:53:57;;;;;;;10.63;9.23;;;16.80;99.90;;;;;;4131227;28;20057;-83
2022/10/25 03:56:17;;;;;;;8.68;7.68;;;16.80;99.90;;;;;;4113940;28;20050;-83
2022/10/25 03:58:36;;;;;;;8.90;7.35;;;17.00;99.90;;;;;;4121009;28;20265;-83
2022/10/25 04:00:56;;;;;;;9.60;7.80;;;17.10;99.90;;;;;;4124323;28;20272;-82
2022/10/25 04:03:16;;;;;;;7.60;6.88;;;16.90;99.90;;;;;;4121496;28;20101;-82
2022/10/25 04:05:36;;;;;;;12.48;8.27;;;16.80;99.90;;;;;;4131243;28;20275;-83
2022/10/25 04:07:55;;;;;;;10.52;8.13;;;16.90;99.90;;;;;;4130371;28;20085;-82
2022/10/25 04:10:16;;;;;;;7.95;7.22;;;16.80;99.90;;;;;;4112966;28;20430;-82
2022/10/25 04:12:36;;;;;;;13.20;7.65;;;16.70;99.90;;;;;;4136528;28;20089;-82
2022/10/25 04:14:57;;;;;;;8.10;7.60;;;16.60;99.90;;;;;;4137707;28;20092;-82
2022/10/25 04:17:16;;;;;;;10.68;8.02;;;16.60;99.90;;;;;;4134914;28;20100;-83
2022/10/25 04:19:36;;;;;;;9.13;7.30;;;16.60;99.90;;;;;;4135119;28;20069;-82
2022/10/25 04:21:56;;;;;;;7.53;6.78;;;16.60;99.90;;;;;;4123277;28;20045;-83
2022/10/25 04:24:16;;;;;;;8.63;7.78;;;16.70;99.90;;;;;;4125685;28;20234;-82
2022/10/25 04:26:36;;;;;;;9.43;8.23;;;16.60;99.90;;;;;;4137412;28;20046;-83
2022/10/25 04:28:56;;;;;;;15.73;8.50;;;16.50;99.90;;;;;;4132216;28;20053;-83
2022/10/25 04:31:16;;;;;;;8.15;7.53;;;16.40;99.90;;;;;;4132353;28;20036;-82
2022/10/25 04:33:36;;;;;;;8.18;7.30;;;16.40;99.90;;;;;;4135077;28;20402;-83
2022/10/25 04:35:56;;;;;;;10.43;7.50;;;16.40;99.90;;;;;;4129192;28;20069;-82
2022/10/25 04:38:16;;;;;;;13.55;8.93;;;16.30;99.90;;;;;;4129855;28;20117;-83
2022/10/25 04:40:36;;;;;;;11.02;8.90;;;16.20;99.90;;;;;;4137822;28;20379;-83
2022/10/25 04:42:55;;;;;;;11.30;7.75;;;16.10;99.90;;;;;;4134939;28;20054;-83
2022/10/25 04:45:15;;;;;;;15.13;9.27;;;16.10;99.90;;;;;;4119411;28;20078;-83
2022/10/25 04:47:35;;;;;;;8.73;7.93;;;16.10;99.90;;;;;;4130812;28;20049;-83
2022/10/25 04:49:55;;;;;;;9.82;8.85;;;16.10;99.90;;;;;;4128055;28;20096;-83
2022/10/25 04:52:14;;;;;;;9.55;8.73;;;16.20;99.90;;;;;;4116558;28;20260;-82
2022/10/25 04:54:34;;;;;;;9.63;8.82;;;16.20;99.90;;;;;;4138614;28;20114;-82
2022/10/25 04:56:53;;;;;;;10.40;9.20;;;16.10;99.90;;;;;;4120374;28;20053;-82
2022/10/25 04:59:13;;;;;;;11.23;8.38;;;16.00;99.90;;;;;;4132635;28;20241;-83
2022/10/25 05:01:33;;;;;;;18.38;9.27;;;16.00;99.90;;;;;;4129884;28;20101;-83
2022/10/25 05:03:53;;;;;;;12.13;8.32;;;16.10;99.90;;;;;;4127077;28;20054;-82
2022/10/25 05:06:16;;;;;;;10.48;8.73;;;15.90;99.90;;;;;;4122097;28;20061;-83
2022/10/25 05:08:39;;;;;;;12.60;9.65;;;15.80;99.90;;;;;;4125199;28;20111;-82
2022/10/25 05:10:59;;;;;;;8.95;7.63;;;15.80;99.90;;;;;;4134471;28;20102;-83
2022/10/25 05:13:18;;;;;;;10.77;7.80;;;15.80;99.90;;;;;;4132821;28;20141;-83
2022/10/25 05:15:38;;;;;;;11.98;9.13;;;15.80;99.90;;;;;;4137185;28;20065;-83
2022/10/25 05:17:58;;;;;;;10.43;8.52;;;15.80;99.90;;;;;;4139719;28;20058;-83
2022/10/25 05:20:19;;;;;;;9.48;8.70;;;15.80;99.90;;;;;;4139337;28;20073;-83
2022/10/25 05:22:38;;;;;;;10.13;9.10;;;15.80;99.90;;;;;;4136676;28;20053;-84
2022/10/25 05:24:58;;;;;;;10.10;7.80;;;15.80;99.90;;;;;;4131658;28;20269;-83
2022/10/25 05:27:18;;;;;;;9.35;8.45;;;15.90;99.90;;;;;;4119636;28;20046;-83
2022/10/25 05:29:38;;;;;;;9.93;8.02;;;16.00;99.90;;;;;;4136856;28;20110;-83
2022/10/25 05:31:58;;;;;;;10.30;8.00;;;15.90;99.90;;;;;;4111238;28;20116;-83
2022/10/25 05:34:18;;;;;;;10.20;7.95;;;16.00;99.90;;;;;;4126562;28;20081;-83
2022/10/25 05:36:38;;;;;;;9.10;8.38;;;15.90;99.90;;;;;;4134973;28;20054;-83
2022/10/25 05:39:02;;;;;;;9.73;7.43;;;16.00;99.90;;;;;;4133625;28;20061;-83
2022/10/25 05:41:22;;;;;;;11.27;8.98;;;16.00;99.90;;;;;;4120140;28;20425;-83
2022/10/25 05:43:43;;;;;;;9.57;7.70;;;16.00;99.90;;;;;;4125761;28;20092;-83
2022/10/25 05:46:15;;;;;;;14.10;8.35;;;16.00;99.90;;;;;;4131983;28;20080;-83
2022/10/25 05:48:36;;;;;;;13.77;9.25;;;16.00;99.90;;;;;;4137250;28;20038;-83
2022/10/25 05:51:12;;;;;;;11.73;7.95;;;16.00;99.90;;;;;;4132960;28;20045;-83
2022/10/25 05:53:55;;;;;;;8.05;7.22;;;16.00;99.90;;;;;;4131191;28;20053;-83
2022/10/25 05:56:15;;;;;;;10.10;8.57;;;16.00;99.90;;;;;;4126549;28;20405;-83
2022/10/25 05:58:34;;;;;;;10.40;9.38;;;16.00;99.90;;;;;;4120267;28;20050;-84
2022/10/25 06:00:58;;;;;;;8.88;8.10;;;16.00;99.90;;;;;;4135913;28;20182;-85
2022/10/25 06:03:18;;;;;;;9.88;6.75;;;16.10;99.90;;;;;;4136161;28;20061;-85
2022/10/25 06:05:37;;;;;;;8.85;7.65;;;16.10;99.90;;;;;;4118456;28;20130;-85
2022/10/25 06:07:57;;;;;;;12.85;8.20;;;16.10;99.90;;;;;;4130315;28;20236;-85
2022/10/25 06:10:17;;;;;;;13.07;8.15;;;16.10;99.90;;;;;;4129370;28;20046;-85
2022/10/25 06:12:36;;;;;;;8.50;7.47;;;16.10;99.90;;;;;;4131697;28;20081;-85
2022/10/25 06:14:56;;;;;;;9.27;8.70;;;16.20;99.90;;;;;;4122895;28;20049;-85
2022/10/25 06:17:16;;;;;;;10.02;8.15;;;16.10;99.90;;;;;;4137947;28;20073;-85
2022/10/25 06:19:35;;;;;;;13.65;7.97;;;16.10;99.90;;;;;;4135031;28;20085;-85
2022/10/25 06:21:55;;;;;;;11.10;7.78;;;16.10;99.90;;;;;;4137669;28;20114;-86
2022/10/25 06:24:15;;;;;;;8.25;7.50;;;16.20;99.90;;;;;;4140058;28;20065;-85
2022/10/25 06:26:34;;;;;;;9.57;8.65;;;16.20;99.90;;;;;;4142657;28;20046;-86
2022/10/25 06:29:00;;;;;;;9.93;7.20;;;16.20;99.90;;;;;;4115137;28;20098;-85
2022/10/25 06:31:20;;;;;;;12.60;8.48;;;16.20;99.90;;;;;;4118149;28;20038;-84
2022/10/25 06:33:40;;;;;;;8.93;7.63;;;16.30;99.90;;;;;;4120568;28;20049;-85
2022/10/25 06:36:02;;;;;;;8.65;7.90;;;16.30;99.90;;;;;;4137875;28;20267;-84
2022/10/25 06:38:22;;;;;;;9.65;7.75;;;16.30;99.90;;;;;;4128219;28;20077;-85
2022/10/25 06:40:42;;;;;;;10.52;7.85;;;16.40;99.90;;;;;;4142251;28;20049;-85
2022/10/25 06:43:02;;;;;;;12.57;7.93;;;16.50;99.90;;;;;;4129411;28;20053;-85
2022/10/25 06:45:22;;;;;;;9.35;8.45;;;16.50;99.90;;;;;;4135516;28;20054;-85
2022/10/25 06:47:45;;;;;;;12.27;8.50;;;16.50;99.90;;;;;;4134076;28;20237;-85
2022/10/25 06:50:05;;;;;;;14.20;8.70;;;16.50;99.90;;;;;;4123868;28;20054;-85
2022/10/25 06:52:27;;;;;;;10.30;9.15;;;16.50;99.90;;;;;;4128142;28;20045;-85
2022/10/25 06:54:47;;;;;;;8.20;7.47;;;16.50;99.90;;;;;;4113639;28;20086;-86
2022/10/25 06:57:06;;;;;;;13.68;7.03;;;16.50;99.90;;;;;;4137272;28;20058;-85
2022/10/25 06:59:26;;;;;;;8.95;7.72;;;16.40;99.90;;;;;;4133891;28;20050;-85
2022/10/25 07:01:46;;;;;;;8.63;7.78;;;16.40;99.90;;;;;;4132924;28;20049;-85
2022/10/25 07:04:06;;;;;;;14.57;9.57;;;16.50;99.90;;;;;;4130036;28;20102;-85
2022/10/25 07:06:28;;;;;;;10.15;7.07;;;16.50;99.90;;;;;;4115220;28;20388;-86
2022/10/25 07:08:55;;;;;;;10.03;7.67;;;16.50;99.90;;;;;;4127616;28;20407;-85
2022/10/25 07:11:17;;;;;;;12.82;9.95;;;16.50;99.90;;;;;;4137806;28;20078;-85
2022/10/25 07:13:37;;;;;;;11.80;9.68;;;16.60;99.90;;;;;;4134284;28;20077;-85
2022/10/25 07:16:05;;;;;;;7.85;7.30;;;16.60;99.90;;;;;;4130869;28;20069;-85
2022/10/25 07:18:24;;;;;;;12.88;8.20;;;16.60;99.90;;;;;;4140037;28;20057;-86
2022/10/25 07:20:47;;;;;;;9.57;8.70;;;16.70;99.90;;;;;;4141272;28;20374;-86
2022/10/25 07:23:07;;;;;;;11.95;7.68;;;16.70;99.90;;;;;;4129693;28;20053;-86
2022/10/25 07:25:28;;;;;;;10.43;7.30;;;16.70;99.90;;;;;;4132336;28;20053;-85
2022/10/25 07:27:47;;;;;;;9.82;8.82;;;16.80;99.90;;;;;;4120290;28;20093;-86
2022/10/25 07:30:08;;;;;;;10.18;8.18;;;16.80;99.90;;;;;;4137511;28;20053;-86
2022/10/25 07:32:28;;;;;;;11.40;7.55;;;16.80;99.90;;;;;;4140528;28;20097;-85
2022/10/25 07:34:47;;;;;;;11.77;7.57;;;16.80;99.90;;;;;;4127214;28;20114;-87
2022/10/25 07:37:07;;;;;;;8.73;6.68;;;16.90;99.90;;;;;;4115400;28;20041;-86
2022/10/25 07:39:27;;;;;;;13.60;8.00;;;17.00;99.90;;;;;;4134230;28;20384;-85
2022/10/25 07:41:48;;;;;;;11.63;9.00;;;17.00;99.90;;;;;;4133117;28;20368;-85
2022/10/25 07:44:08;;;;;;;12.27;9.07;;;17.00;99.90;;;;;;4115329;28;20269;-85
2022/10/25 07:46:36;;;;;;;15.20;8.55;;;16.90;99.90;;;;;;4127147;28;20085;-86
2022/10/25 07:48:56;;;;;;;19.00;8.95;;;16.90;99.90;;;;;;4139384;28;20065;-85
2022/10/25 07:51:17;;;;;;;10.70;9.05;;;16.90;99.90;;;;;;4130486;28;20431;-84
2022/10/25 07:53:37;;;;;;;11.63;10.60;;;17.00;99.90;;;;;;4133609;28;20073;-84
2022/10/25 07:55:57;;;;;;;13.30;11.20;;;17.10;99.90;;;;;;4117704;28;20039;-84
2022/10/25 07:58:18;;;;;;;11.18;10.05;;;17.10;99.90;;;;;;4124629;28;20058;-84
2022/10/25 08:00:38;;;;;;;11.27;8.60;;;17.10;99.90;;;;;;4129252;28;20053;-85
2022/10/25 08:02:57;;;;;;;11.32;7.85;;;17.20;99.90;;;;;;4139598;28;20069;-84
2022/10/25 08:05:17;;;;;;;13.77;7.82;;;17.20;99.90;;;;;;4131133;28;20121;-84
2022/10/25 08:07:37;;;;;;;8.10;6.95;;;17.20;99.90;;;;;;4133904;28;20057;-84
2022/10/25 08:09:56;;;;;;;8.10;7.07;;;17.30;99.90;;;;;;4126217;28;20431;-85
2022/10/25 08:12:16;;;;;;;9.52;7.93;;;17.30;99.90;;;;;;4129187;28;20221;-84
2022/10/25 08:14:41;;;;;;;9.90;6.53;;;17.40;99.90;;;;;;4135488;28;20045;-84
2022/10/25 08:17:04;;;;;;;11.60;6.97;;;17.40;99.90;;;;;;4124454;28;20050;-85
2022/10/25 08:19:23;;;;;;;8.52;7.75;;;17.50;99.90;;;;;;4121222;28;20411;-84
2022/10/25 08:21:43;;;;;;;7.40;6.78;;;17.60;99.90;;;;;;4132692;28;20053;-84
2022/10/25 08:24:03;;;;;;;8.15;6.60;;;17.70;99.90;;;;;;4115444;28;20081;-84
2022/10/25 08:26:25;;;;;;;7.90;6.45;;;17.80;99.90;;;;;;4138105;28;20057;-84
2022/10/25 08:28:45;;;;;;;9.40;6.47;;;17.90;99.90;;;;;;4125891;28;20046;-84
2022/10/25 08:31:05;;;;;;;11.27;6.10;;;17.90;99.90;;;;;;4134797;28;20045;-84
2022/10/25 08:33:25;;;;;;;11.27;7.57;;;18.00;99.90;;;;;;4133809;28;20445;-85
2022/10/25 08:35:44;;;;;;;15.85;8.35;;;18.10;99.90;;;;;;4131728;28;20062;-84
2022/10/25 08:38:05;;;;;;;10.73;6.65;;;18.20;99.90;;;;;;4129057;28;20053;-85
2022/10/25 08:40:39;;;;;;;13.88;9.07;;;18.30;99.90;;;;;;4137709;28;20048;-85
2022/10/25 08:43:22;;;;;;;18.13;10.43;;;18.20;99.90;;;;;;4139532;28;20058;-85
2022/10/25 08:45:54;;;;;;;23.63;9.48;;;18.40;99.90;;;;;;4136173;28;20037;-87
2022/10/25 08:48:19;;;;;;;16.70;10.38;;;18.40;99.90;;;;;;4131495;28;20049;-87
2022/10/25 08:50:50;;;;;;;17.23;10.85;;;18.40;99.90;;;;;;4117568;28;20372;-86
2022/10/25 08:53:20;;;;;;;15.73;9.02;;;18.40;99.90;;;;;;4137337;28;20078;-87
2022/10/25 08:55:42;;;;;;;14.27;9.00;;;18.50;99.90;;;;;;4126712;28;20102;-86
2022/10/25 08:58:41;;;;;;;22.13;9.15;;;18.60;99.90;;;;;;4136840;28;20093;-87
2022/10/25 09:01:14;;;;;;;13.68;7.45;;;18.70;99.90;;;;;;4132740;28;20273;-87
2022/10/25 09:03:34;;;;;;;12.13;7.30;;;18.80;99.90;;;;;;4129203;28;20068;-87
2022/10/25 09:06:12;;;;;;;11.20;5.97;;;18.90;99.90;;;;;;4126828;28;20045;-87
2022/10/25 09:08:41;;;;;;;9.82;5.95;;;18.80;99.90;;;;;;4132386;28;20065;-86
2022/10/25 09:11:13;;;;;;;10.93;6.75;;;19.00;99.90;;;;;;4137525;28;20045;-86
2022/10/25 09:14:25;;;;;;;11.43;5.20;;;19.10;99.90;;;;;;4134893;28;20108;-86
2022/10/25 09:16:49;;;;;;;9.15;4.13;;;19.30;99.90;;;;;;4126800;28;20041;-87
2022/10/25 09:19:47;;;;;;;8.40;4.28;;;19.40;99.90;;;;;;4124052;28;20376;-86
2022/10/25 09:22:17;;;;;;;15.38;5.25;;;19.60;99.90;;;;;;4124658;28;20122;-87
2022/10/25 09:25:01;;;;;;;7.32;4.72;;;19.70;99.90;;;;;;4135858;28;20359;-87
2022/10/25 09:27:35;;;;;;;12.13;5.90;;;19.70;99.90;;;;;;4118548;28;20038;-86
2022/10/25 09:30:00;;;;;;;9.88;4.75;;;19.80;99.90;;;;;;4130792;28;20265;-88
2022/10/25 09:32:37;;;;;;;9.77;4.40;;;19.90;99.90;;;;;;4127996;28;20045;-85
2022/10/25 09:34:59;;;;;;;9.25;4.30;;;20.10;99.90;;;;;;4125561;28;20053;-86
2022/10/25 09:37:51;;;;;;;7.57;5.00;;;20.40;99.90;;;;;;4138608;28;20048;-86
2022/10/25 09:40:24;;;;;;;8.48;4.38;;;20.50;99.90;;;;;;4134161;28;20123;-87
2022/10/25 09:42:54;;;;;;;8.38;5.00;;;20.60;99.90;;;;;;4133524;28;20045;-86
2022/10/25 09:45:29;;;;;;;17.02;4.35;;;20.50;99.90;;;;;;4133808;28;20100;-86
2022/10/25 09:48:00;;;;;;;9.68;3.83;;;20.50;99.90;;;;;;4127467;28;20356;-89
2022/10/25 09:50:26;;;;;;;13.35;4.10;;;20.50;99.90;;;;;;4112052;28;20152;-87
2022/10/25 09:52:52;;;;;;;9.95;3.78;;;20.50;99.90;;;;;;4129579;28;20348;-86
2022/10/25 09:55:34;;;;;;;9.30;4.45;;;20.50;99.90;;;;;;4132898;28;20073;-86
2022/10/25 09:57:54;;;;;;;10.02;4.03;;;20.70;99.90;;;;;;4135285;28;20084;-86
2022/10/25 10:00:15;;;;;;;8.20;3.88;;;20.60;99.90;;;;;;4112224;28;20273;-87
2022/10/25 10:02:35;;;;;;;9.73;4.05;;;20.70;99.90;;;;;;4135052;28;20241;-88
2022/10/25 10:04:55;;;;;;;11.38;3.88;;;20.70;99.90;;;;;;4113262;28;20110;-89
2022/10/25 10:07:20;;;;;;;12.07;4.18;;;20.60;99.90;;;;;;4118325;28;20360;-87
2022/10/25 10:09:40;;;;;;;8.43;3.83;;;20.70;99.90;;;;;;4133190;28;20111;-89
2022/10/25 10:12:10;;;;;;;11.50;4.82;;;20.70;99.90;;;;;;4136261;28;20113;-88
2022/10/25 10:14:43;;;;;;;5.78;3.97;;;21.00;99.90;;;;;;4139514;28;20137;-87
2022/10/25 10:17:04;;;;;;;5.43;3.70;;;20.90;99.90;;;;;;4117314;28;20046;-87
2022/10/25 10:19:28;;;;;;;6.03;3.60;;;20.60;99.90;;;;;;4135899;28;20045;-86
2022/10/25 10:21:51;;;;;;;7.97;3.38;;;20.90;99.90;;;;;;4133046;28;20077;-87
2022/10/25 10:24:19;;;;;;;17.33;4.60;;;20.80;99.90;;;;;;4130271;28;20328;-86
2022/10/25 10:26:47;;;;;;;10.80;3.28;;;20.60;99.90;;;;;;4136277;28;20110;-86
2022/10/25 10:29:14;;;;;;;11.25;3.17;;;20.70;99.90;;;;;;4125467;28;20237;-89
2022/10/25 10:31:46;;;;;;;7.95;4.03;;;20.90;99.90;;;;;;4123033;28;20042;-86
2022/10/25 10:34:28;;;;;;;6.78;4.03;;;21.20;99.90;;;;;;4134369;28;20058;-87
2022/10/25 10:37:00;;;;;;;9.40;4.37;;;21.00;99.90;;;;;;4130681;28;20097;-86
2022/10/25 10:39:22;;;;;;;12.25;3.92;;;21.00;99.90;;;;;;4122985;28;20292;-86
2022/10/25 10:42:01;;;;;;;15.43;3.50;;;21.10;99.90;;;;;;4110587;28;20106;-86
2022/10/25 10:44:21;;;;;;;15.18;4.78;;;21.20;99.90;;;;;;4137921;28;20042;-86
2022/10/25 10:46:45;;;;;;;3.17;2.97;;;21.10;99.90;;;;;;4135161;28;20233;-87
2022/10/25 10:49:05;;;;;;;5.60;3.17;;;21.10;99.90;;;;;;4132383;28;20241;-86
2022/10/25 10:51:41;;;;;;;10.93;4.72;;;20.90;99.90;;;;;;4129206;28;20049;-85
2022/10/25 10:54:25;;;;;;;8.43;4.13;;;21.00;99.90;;;;;;4125904;28;20167;-86
2022/10/25 10:57:02;;;;;;;9.93;3.05;;;21.10;99.90;;;;;;4140760;28;20044;-86
2022/10/25 10:59:45;;;;;;;9.68;3.17;;;21.00;99.90;;;;;;4130852;28;20217;-87
2022/10/25 11:02:19;;;;;;;7.50;2.92;;;21.20;99.90;;;;;;4135070;28;20145;-86
2022/10/25 11:04:52;;;;;;;12.77;3.38;;;21.10;99.90;;;;;;4136845;28;20277;-86
2022/10/25 11:07:13;;;;;;;8.77;3.35;;;21.00;99.90;;;;;;4140291;28;20384;-86
2022/10/25 11:09:33;;;;;;;5.05;3.15;;;21.40;99.90;;;;;;4131409;28;20054;-85
2022/10/25 11:12:11;;;;;;;7.53;4.32;;;21.20;99.90;;;;;;4139339;28;20045;-86
2022/10/25 11:14:30;;;;;;;7.88;3.85;;;21.00;99.90;;;;;;4134287;28;20306;-86
2022/10/25 11:17:26;;;;;;;8.80;5.15;;;20.80;99.90;;;;;;4119220;28;20051;-86
2022/10/25 11:20:24;;;;;;;8.95;5.45;;;21.00;99.90;;;;;;4130326;28;20049;-86
2022/10/25 11:23:24;;;;;;;8.30;3.88;;;21.10;99.90;;;;;;4141794;28;20045;-85
2022/10/25 11:26:13;;;;;;;4.40;4.00;;;21.40;99.90;;;;;;4134955;28;20060;-86
2022/10/25 11:28:42;;;;;;;14.18;4.35;;;21.30;99.90;;;;;;4135622;28;20081;-88
2022/10/25 11:31:28;;;;;;;6.13;3.53;;;21.60;99.90;;;;;;4118362;28;20119;-86
2022/10/25 11:34:06;;;;;;;5.78;3.17;;;21.40;99.90;;;;;;4114190;28;20269;-86
2022/10/25 11:36:37;;;;;;;12.75;4.82;;;21.40;99.90;;;;;;4135140;28;20046;-87
2022/10/25 11:39:30;;;;;;;5.55;3.75;;;21.50;99.90;;;;;;4139297;28;20053;-85
2022/10/25 11:41:56;;;;;;;14.13;3.73;;;21.60;99.90;;;;;;4130524;28;20041;-86
2022/10/25 11:44:43;;;;;;;7.93;3.28;;;21.70;99.90;;;;;;4134406;28;20316;-86
2022/10/25 11:47:23;;;;;;;10.77;4.30;;;21.20;99.90;;;;;;4115506;28;20314;-86
2022/10/25 11:49:58;;;;;;;12.82;4.32;;;21.40;99.90;;;;;;4132018;28;20041;-87
2022/10/25 11:52:33;;;;;;;9.30;4.10;;;21.80;99.90;;;;;;4139185;28;20062;-86
2022/10/25 11:55:12;;;;;;;15.85;3.35;;;21.80;99.90;;;;;;4135002;28;20092;-86
2022/10/25 11:58:15;;;;;;;8.93;3.50;;;21.80;99.90;;;;;;4135472;28;20069;-86
2022/10/25 12:01:04;;;;;;;9.70;3.55;;;22.30;99.90;;;;;;4128869;28;20076;-85
2022/10/25 12:03:43;;;;;;;14.30;3.85;;;21.60;99.90;;;;;;4084748;29;20127;-86
2022/10/25 12:06:11;;;;;;;10.25;3.35;;;21.90;99.90;;;;;;4070101;29;20051;-86
2022/10/25 12:08:46;;;;;;;13.77;4.75;;;21.80;99.90;;;;;;4084847;29;20401;-86
2022/10/25 12:11:24;;;;;;;9.35;3.72;;;21.70;99.90;;;;;;4083518;29;20047;-86
2022/10/25 12:13:49;;;;;;;12.80;3.42;;;21.50;99.90;;;;;;4074761;29;20055;-86
2022/10/25 12:16:12;;;;;;;15.27;4.00;;;21.70;99.90;;;;;;4076724;29;20299;-86
2022/10/25 12:18:39;;;;;;;6.75;2.95;;;22.10;99.90;;;;;;4078928;29;20051;-87
2022/10/25 12:21:00;;;;;;;14.05;4.97;;;22.30;99.90;;;;;;4087600;29;20083;-86
2022/10/25 12:23:23;;;;;;;8.60;4.32;;;21.90;99.90;;;;;;4071800;29;20069;-86
2022/10/25 12:25:50;;;;;;;5.97;3.05;;;22.10;99.90;;;;;;4076805;29;20063;-85
2022/10/25 12:28:10;;;;;;;8.55;3.58;;;21.60;99.90;;;;;;4075628;29;20043;-86
2022/10/25 12:30:31;;;;;;;8.05;3.85;;;21.60;99.90;;;;;;4091385;29;20079;-86
2022/10/25 12:33:13;;;;;;;9.73;4.32;;;21.70;99.90;;;;;;4088666;29;20058;-85